La Cueva, New Mexico
Current Conditions -  °F | °C
As of 8:53 PM on Friday 28 Nov 2014 (Local Time) from KSAF Reporting Station
Clear Clear  
Wind Chill: 33°   Ceiling: Unl
Heat Index: 38°   Visibility: 10mi
Dew Point: 14°   Wind: 7mph
Humidity: 38%   Direction: 300°WNW
Pressure: 30.1"   Gusts: NA
Location:  35.6111°N, 105.774°W
Report Text: KSAF 290353Z AUTO 30006KT 10SM CLR 03/M10 A3010 RMK AO2 SLP169 T00331100
Loading
Personal Weather Stations






























Interactive Weather Map New forecast layout! Learn more

10-Day Weather Forecast

Advertisements
Track Severe Weather on mobile